Weldon Spring, Missouri
Current Conditions -  °F | °C
As of 8:54 AM on Wednesday 26 Nov 2014 (Local Time) from KSUS Reporting Station
Overcast Overcast  
Wind Chill: 25°   Ceiling: 9000
Heat Index: 31°   Visibility: 10mi
Dew Point: 26°   Wind: 6mph
Humidity: 82%   Direction: 110°ESE
Pressure: 30.02"   Gusts: NA
Location:  38.7167°N, 90.6411°W
Report Text: KSUS 261454Z 11005KT 10SM OVC090 M01/M03 A3002 RMK AO2 SLP175 T10061033 58016
Loading
Personal Weather Stations






























Interactive Weather Map New forecast layout! Learn more

10-Day Weather Forecast

Advertisements
Track Severe Weather on mobile